Time;durP1;ratioP1;P1;durP2;ratioP2;P2;SDS_P1;SDS_P2;PMS_P1;PMS_P2;Temp;Humidity;BMP_temperature;BMP_pressure;BME280_temperature;BME280_humidity;BME280_pressure;Samples;Min_cycle;Max_cycle;Signal;HPM_P1;HPM_P2
2023/09/07 00:00:18;;;;;;;;;10.00;9.25;;;;;29.91;87.56;100997.47;2122376;27;46569;-60
2023/09/07 00:01:19;;;;;;;;;7.50;7.50;;;;;29.87;87.77;100996.94;2122211;27;46854;-60
2023/09/07 00:02:19;;;;;;;;;9.00;9.00;;;;;30.01;88.01;100991.97;2122453;27;46407;-59
2023/09/07 00:03:19;;;;;;;;;9.75;9.75;;;;;30.01;87.62;100990.09;2108941;27;46678;-59
2023/09/07 00:04:22;;;;;;;;;13.50;13.50;;;;;30.00;87.21;100991.09;2113169;27;46860;-59
2023/09/07 00:05:22;;;;;;;;;11.00;9.80;;;;;29.99;88.11;100988.53;2122257;27;46265;-59
2023/09/07 00:06:23;;;;;;;;;11.25;10.75;;;;;29.98;87.30;100986.75;2122719;27;46468;-60
2023/09/07 00:07:23;;;;;;;;;10.75;9.75;;;;;29.97;87.33;100988.66;2122368;27;46265;-60
2023/09/07 00:08:25;;;;;;;;;11.25;11.25;;;;;29.96;87.67;100986.94;2122121;27;45214;-59
2023/09/07 00:09:26;;;;;;;;;12.80;12.40;;;;;29.95;87.47;100990.69;2113128;27;46476;-59
2023/09/07 00:10:27;;;;;;;;;13.20;13.20;;;;;29.96;87.62;100986.06;2113401;27;46774;-60
2023/09/07 00:11:27;;;;;;;;;15.25;14.00;;;;;29.96;88.03;100986.94;2121591;27;46382;-58
2023/09/07 00:12:27;;;;;;;;;34.00;29.50;;;;;29.94;88.00;100986.22;2122527;27;46138;-60
2023/09/07 00:13:27;;;;;;;;;24.00;23.25;;;;;29.91;87.90;100989.25;2111745;27;46092;-60
2023/09/07 00:14:28;;;;;;;;;32.50;29.50;;;;;29.77;88.00;100985.16;2113039;27;46297;-60
2023/09/07 00:15:29;;;;;;;;;13.50;13.50;;;;;29.77;87.95;100989.78;2121858;27;46467;-60
2023/09/07 00:16:38;;;;;;;;;10.60;10.00;;;;;29.86;87.38;100977.94;2117792;27;47351;-60
2023/09/07 00:17:38;;;;;;;;;26.60;23.40;;;;;29.86;86.85;100988.88;2104842;27;46983;-60
2023/09/07 00:18:38;;;;;;;;;15.00;15.00;;;;;29.83;86.52;100979.06;2104393;28;46883;-61
2023/09/07 00:19:39;;;;;;;;;11.50;11.50;;;;;29.81;86.75;100977.50;2101424;28;46718;-59
2023/09/07 00:20:40;;;;;;;;;19.75;18.75;;;;;29.80;86.52;100984.00;2112949;27;46314;-60
2023/09/07 00:21:40;;;;;;;;;13.00;11.00;;;;;29.76;86.81;100980.69;2122170;27;46971;-58
2023/09/07 00:22:41;;;;;;;;;11.50;10.50;;;;;29.78;86.56;100980.56;2121865;27;46084;-60
2023/09/07 00:23:41;;;;;;;;;10.50;9.50;;;;;29.76;86.50;100983.44;2122190;27;46747;-58
2023/09/07 00:24:42;;;;;;;;;9.00;9.00;;;;;29.73;86.96;100974.66;2122732;27;45624;-61
2023/09/07 00:25:42;;;;;;;;;8.25;7.75;;;;;29.70;86.64;100981.28;2086892;28;46385;-59
2023/09/07 00:26:43;;;;;;;;;9.75;8.00;;;;;29.69;86.89;100973.25;2095546;28;47127;-59
2023/09/07 00:27:43;;;;;;;;;7.00;6.25;;;;;29.65;86.64;100966.34;2109386;27;46019;-57
2023/09/07 00:28:43;;;;;;;;;7.00;7.00;;;;;29.64;86.20;100970.09;2104304;28;46280;-59
2023/09/07 00:29:44;;;;;;;;;9.00;8.75;;;;;29.64;86.67;100967.38;2120768;27;45715;-60
2023/09/07 00:30:44;;;;;;;;;8.00;8.00;;;;;29.58;86.50;100968.81;2121971;27;46207;-59
2023/09/07 00:31:45;;;;;;;;;6.33;5.00;;;;;29.59;86.51;100965.91;2120940;27;46385;-59
2023/09/07 00:32:45;;;;;;;;;7.75;7.75;;;;;29.56;87.14;100966.22;2122602;27;46376;-60
2023/09/07 00:33:45;;;;;;;;;7.75;7.75;;;;;29.62;86.60;100963.94;2122077;27;46046;-60
2023/09/07 00:34:46;;;;;;;;;11.25;10.25;;;;;29.62;86.60;100967.53;2122091;27;46817;-59
2023/09/07 00:35:46;;;;;;;;;8.75;8.75;;;;;29.62;86.63;100973.00;2122036;27;46658;-59
2023/09/07 00:36:47;;;;;;;;;14.25;13.00;;;;;29.63;86.38;100962.91;2122749;27;46636;-61
2023/09/07 00:37:47;;;;;;;;;14.75;14.75;;;;;29.62;86.72;100973.00;2115551;27;46689;-59
2023/09/07 00:38:47;;;;;;;;;12.75;12.75;;;;;29.62;86.25;100970.25;2122276;27;46304;-59
2023/09/07 00:39:47;;;;;;;;;10.00;10.00;;;;;29.62;86.02;100969.41;2121997;27;46347;-61
2023/09/07 00:40:48;;;;;;;;;10.25;8.00;;;;;29.62;86.23;100972.13;2117010;27;46347;-61
2023/09/07 00:41:49;;;;;;;;;5.00;5.00;;;;;29.60;85.91;100966.78;2121067;27;45942;-59
2023/09/07 00:42:49;;;;;;;;;10.00;9.75;;;;;29.60;86.41;100966.78;2106961;27;46673;-59
2023/09/07 00:43:49;;;;;;;;;8.33;8.33;;;;;29.55;86.31;100974.59;2112573;27;47027;-60
2023/09/07 00:44:49;;;;;;;;;8.75;8.00;;;;;29.46;86.69;100969.97;2122523;27;46160;-60
2023/09/07 00:45:50;;;;;;;;;7.33;7.33;;;;;29.44;86.97;100972.00;2122082;27;46211;-59
2023/09/07 00:46:50;;;;;;;;;8.50;8.50;;;;;29.39;87.03;100964.25;2103471;28;46357;-58
2023/09/07 00:47:51;;;;;;;;;10.50;8.25;;;;;29.39;87.50;100969.72;2103624;28;45905;-59
2023/09/07 00:48:51;;;;;;;;;9.75;9.75;;;;;29.38;87.73;100978.94;2091817;28;46126;-60
2023/09/07 00:49:51;;;;;;;;;14.75;14.75;;;;;29.38;87.60;100976.22;2087552;28;46906;-60
2023/09/07 00:50:52;;;;;;;;;9.25;7.50;;;;;29.38;87.82;100978.09;2109240;27;46104;-59
2023/09/07 00:51:52;;;;;;;;;8.50;8.50;;;;;29.38;87.36;100978.09;2113108;27;46221;-61
2023/09/07 00:52:54;;;;;;;;;7.75;7.75;;;;;29.37;87.56;100976.34;2121888;27;46575;-60
2023/09/07 00:53:54;;;;;;;;;7.00;7.00;;;;;29.41;87.82;100975.03;2121992;27;47153;-61
2023/09/07 00:54:54;;;;;;;;;7.00;7.00;;;;;29.42;87.26;100988.56;2122104;27;46472;-60
2023/09/07 00:55:56;;;;;;;;;7.75;7.75;;;;;29.38;87.35;100978.09;2121911;27;45923;-61
2023/09/07 00:56:57;;;;;;;;;10.40;10.40;;;;;29.37;87.33;100977.22;2121509;27;46368;-61
2023/09/07 00:57:57;;;;;;;;;7.25;7.25;;;;;29.38;87.58;100969.88;2122106;27;45983;-60
2023/09/07 00:58:59;;;;;;;;;6.75;6.75;;;;;29.36;87.70;100975.50;2114495;27;46645;-60
2023/09/07 01:00:00;;;;;;;;;8.40;7.00;;;;;29.36;87.75;100974.63;2115704;27;46479;-61
2023/09/07 01:01:00;;;;;;;;;5.00;5.00;;;;;29.36;87.91;100978.22;2121931;27;46704;-59
2023/09/07 01:02:00;;;;;;;;;7.75;7.75;;;;;29.33;87.58;100975.78;2115742;27;45862;-61
2023/09/07 01:03:01;;;;;;;;;9.33;9.00;;;;;29.33;88.29;100975.78;2118030;27;46283;-60
2023/09/07 01:04:03;;;;;;;;;7.67;7.67;;;;;29.31;88.21;100977.78;2103093;28;46863;-59
2023/09/07 01:05:06;;;;;;;;;8.00;8.00;;;;;29.31;88.51;100975.91;2094930;27;46378;-61
2023/09/07 01:06:14;;;;;;;;;7.80;7.80;;;;;29.31;87.95;100972.31;2113373;27;46854;-61
2023/09/07 01:07:20;;;;;;;;;6.20;6.20;;;;;29.28;88.37;100975.38;2120846;27;46587;-61
2023/09/07 01:08:28;;;;;;;;;5.75;5.75;;;;;29.29;88.39;100975.22;2116575;27;46596;-60
2023/09/07 01:09:31;;;;;;;;;6.75;6.75;;;;;29.27;88.32;100969.03;2121628;27;46387;-60
2023/09/07 01:10:32;;;;;;;;;5.00;5.00;;;;;29.31;88.33;100972.31;2121592;27;46473;-61
2023/09/07 01:11:37;;;;;;;;;4.00;4.00;;;;;29.33;88.01;100974.91;2109959;27;46378;-61
2023/09/07 01:12:37;;;;;;;;;7.80;7.80;;;;;29.31;87.79;100970.47;2109798;27;46846;-59
2023/09/07 01:13:37;;;;;;;;;7.00;6.33;;;;;29.30;88.52;100966.00;2121781;27;46111;-61
2023/09/07 01:14:38;;;;;;;;;7.00;7.00;;;;;29.37;87.15;100966.28;2114926;27;46672;-58
2023/09/07 01:15:38;;;;;;;;;5.67;5.67;;;;;29.38;86.77;100961.69;2121769;27;46932;-60
2023/09/07 01:16:40;;;;;;;;;6.00;6.00;;;;;29.37;86.89;100960.81;2122153;27;46758;-61
2023/09/07 01:17:41;;;;;;;;;7.40;7.00;;;;;29.38;86.76;100965.28;2112286;27;46652;-60
2023/09/07 01:18:42;;;;;;;;;6.75;6.50;;;;;29.36;86.27;100961.84;2111848;27;46435;-60
2023/09/07 01:19:44;;;;;;;;;5.25;5.25;;;;;29.36;86.25;100963.69;2116265;27;46415;-60
2023/09/07 01:20:46;;;;;;;;;5.40;5.40;;;;;29.30;86.54;100971.47;2121818;27;46739;-60
2023/09/07 01:21:47;;;;;;;;;7.75;7.75;;;;;29.28;86.34;100964.44;2117843;27;46725;-60
2023/09/07 01:22:48;;;;;;;;;9.60;9.60;;;;;29.24;86.81;100973.94;2121103;27;46572;-59
2023/09/07 01:23:49;;;;;;;;;6.67;6.67;;;;;29.25;86.58;100975.66;2121405;27;46824;-60
2023/09/07 01:24:52;;;;;;;;;6.80;6.00;;;;;29.20;86.58;100969.75;2117630;27;46393;-60
2023/09/07 01:25:53;;;;;;;;;7.50;6.25;;;;;29.15;87.22;100977.56;2113232;27;46823;-60
2023/09/07 01:26:54;;;;;;;;;7.75;7.00;;;;;29.17;87.18;100970.94;2111075;27;46919;-60
2023/09/07 01:27:54;;;;;;;;;5.75;5.75;;;;;29.19;86.72;100968.03;2096318;28;46567;-59
2023/09/07 01:28:55;;;;;;;;;9.33;8.33;;;;;29.20;86.95;100970.63;2110222;27;46259;-61
2023/09/07 01:29:57;;;;;;;;;7.50;7.50;;;;;29.20;87.09;100961.56;2121719;27;46735;-57
2023/09/07 01:30:58;;;;;;;;;6.75;6.75;;;;;29.17;86.69;100967.34;2121261;27;46575;-59
2023/09/07 01:31:58;;;;;;;;;7.50;7.50;;;;;29.15;87.22;100967.47;2121052;27;46863;-60
2023/09/07 01:32:58;;;;;;;;;7.00;7.00;;;;;29.15;86.84;100961.16;2122223;27;46886;-60
2023/09/07 01:33:59;;;;;;;;;9.00;7.75;;;;;29.15;87.17;100958.44;2121598;27;46194;-59
2023/09/07 01:35:00;;;;;;;;;7.00;7.00;;;;;29.14;87.11;100959.44;2122105;27;46186;-60
2023/09/07 01:36:01;;;;;;;;;6.25;6.25;;;;;29.12;87.03;100959.59;2121944;27;46491;-60
2023/09/07 01:37:01;;;;;;;;;7.50;7.50;;;;;29.12;86.97;100959.59;2121543;27;46401;-59
2023/09/07 01:38:02;;;;;;;;;6.00;6.00;;;;;29.11;87.21;100957.00;2121360;27;46489;-61
2023/09/07 01:39:05;;;;;;;;;6.25;6.25;;;;;29.08;87.09;100960.88;2111620;27;46476;-61
2023/09/07 01:40:08;;;;;;;;;6.75;6.75;;;;;29.08;87.04;100957.28;2121540;27;46953;-59
2023/09/07 01:41:08;;;;;;;;;5.50;5.50;;;;;29.07;87.03;100958.28;2122073;27;46283;-60
2023/09/07 01:42:09;;;;;;;;;8.50;6.50;;;;;29.05;87.03;100963.91;2121493;27;46363;-61
2023/09/07 01:43:09;;;;;;;;;7.75;7.75;;;;;29.39;86.44;100960.66;2112462;27;46180;-58
2023/09/07 01:44:09;;;;;;;;;8.25;6.75;;;;;29.44;85.42;100964.66;2112769;27;47072;-59
2023/09/07 01:45:10;;;;;;;;;7.50;6.00;;;;;29.43;85.24;100962.06;2121533;27;46289;-59
2023/09/07 01:46:10;;;;;;;;;7.75;7.75;;;;;29.45;84.95;100960.91;2121929;27;46743;-61
2023/09/07 01:47:10;;;;;;;;;6.75;6.75;;;;;29.42;85.37;100963.94;2121966;27;46888;-60
2023/09/07 01:48:13;;;;;;;;;8.00;7.75;;;;;29.46;85.36;100954.44;2121490;27;46852;-60
2023/09/07 01:49:13;;;;;;;;;8.80;7.60;;;;;29.46;84.90;100954.44;2113758;27;46811;-62
2023/09/07 01:50:14;;;;;;;;;5.25;5.25;;;;;29.46;84.93;100951.69;2118910;27;46317;-61
2023/09/07 01:51:14;;;;;;;;;8.00;8.00;;;;;29.42;84.80;100957.63;2121784;27;46468;-60
2023/09/07 01:52:14;;;;;;;;;3.00;3.00;;;;;29.41;85.34;100954.03;2122010;27;46285;-62
2023/09/07 01:53:15;;;;;;;;;7.50;7.50;;;;;29.43;84.89;100951.16;2112266;27;46317;-61
2023/09/07 01:54:15;;;;;;;;;7.00;7.00;;;;;29.41;85.47;100955.91;2111921;27;46398;-61
2023/09/07 01:55:15;;;;;;;;;6.50;6.50;;;;;29.40;85.63;100960.50;2112517;27;46394;-61
2023/09/07 01:56:16;;;;;;;;;7.25;7.25;;;;;29.40;85.61;100956.91;2104579;28;46826;-61
2023/09/07 01:57:17;;;;;;;;;7.50;7.50;;;;;29.38;85.40;100954.34;2112739;27;46683;-61
2023/09/07 01:58:17;;;;;;;;;7.00;7.00;;;;;29.38;85.25;100959.81;2121783;27;46330;-59
2023/09/07 01:59:17;;;;;;;;;6.25;6.00;;;;;29.35;85.42;100957.38;2112605;27;46535;-60
2023/09/07 02:00:18;;;;;;;;;7.50;7.50;;;;;29.35;85.15;100960.09;2112676;27;46734;-60
2023/09/07 02:01:21;;;;;;;;;8.00;8.00;;;;;29.40;85.14;100962.38;2103261;28;46196;-59
2023/09/07 02:02:22;;;;;;;;;6.60;6.60;;;;;29.39;84.92;100953.31;2103373;28;46758;-61
2023/09/07 02:03:22;;;;;;;;;8.00;8.00;;;;;29.36;84.48;100950.91;2091724;28;46838;-61
2023/09/07 02:04:22;;;;;;;;;5.00;5.00;;;;;29.34;84.71;100958.34;2092409;28;46417;-62
2023/09/07 02:05:23;;;;;;;;;9.25;8.50;;;;;29.33;84.90;100947.56;2095560;28;46490;-59
2023/09/07 02:06:23;;;;;;;;;7.33;6.67;;;;;29.33;85.21;100956.63;2095293;28;46433;-61
2023/09/07 02:07:23;;;;;;;;;6.00;5.25;;;;;29.35;84.72;100954.66;2095270;28;46598;-61
2023/09/07 02:08:24;;;;;;;;;7.00;7.00;;;;;29.34;84.65;100957.50;2103869;28;46431;-62
2023/09/07 02:09:24;;;;;;;;;6.33;6.33;;;;;29.31;84.85;100961.41;2101402;27;46731;-61
2023/09/07 02:10:24;;;;;;;;;7.00;7.00;;;;;29.30;84.80;100948.75;2103770;28;46390;-60
2023/09/07 02:11:25;;;;;;;;;9.00;8.00;;;;;29.29;84.63;100955.22;2103527;28;46295;-61
2023/09/07 02:12:25;;;;;;;;;10.00;8.75;;;;;29.28;85.31;100961.69;2103482;28;46777;-60
2023/09/07 02:13:25;;;;;;;;;8.25;7.50;;;;;29.25;84.88;100956.53;2103560;28;45034;-59
2023/09/07 02:14:26;;;;;;;;;7.00;7.00;;;;;29.21;85.17;100955.94;2103515;27;46601;-61
2023/09/07 02:15:26;;;;;;;;;10.00;8.75;;;;;28.93;86.12;100952.28;2104832;28;46832;-58
2023/09/07 02:16:26;;;;;;;;;6.00;6.00;;;;;29.05;86.60;100947.50;2104774;28;46442;-60
2023/09/07 02:17:27;;;;;;;;;8.50;8.50;;;;;29.07;85.57;100955.56;2105224;28;46243;-59
2023/09/07 02:18:27;;;;;;;;;8.75;8.75;;;;;29.09;85.65;100948.06;2105475;28;46579;-61
2023/09/07 02:19:28;;;;;;;;;7.75;7.75;;;;;29.10;85.65;100956.16;2105011;28;46651;-60
2023/09/07 02:20:28;;;;;;;;;6.00;6.00;;;;;29.11;85.48;100949.66;2105443;28;46514;-60
2023/09/07 02:21:28;;;;;;;;;6.25;6.25;;;;;29.10;85.88;100953.41;2104741;28;46487;-61
2023/09/07 02:22:29;;;;;;;;;7.00;7.00;;;;;29.10;85.84;100952.56;2096925;28;46220;-60
2023/09/07 02:23:32;;;;;;;;;7.50;7.50;;;;;29.09;85.55;100953.53;2098653;28;46407;-61
2023/09/07 02:24:32;;;;;;;;;8.40;7.00;;;;;29.09;86.00;100953.53;2100527;28;46239;-61
2023/09/07 02:25:34;;;;;;;;;8.00;8.00;;;;;29.10;86.25;100947.94;2104997;28;46484;-60
2023/09/07 02:26:34;;;;;;;;;8.00;8.00;;;;;29.11;85.88;100954.28;2107478;27;46572;-59
2023/09/07 02:27:35;;;;;;;;;7.75;7.50;;;;;29.10;85.72;100953.41;2113704;27;46643;-61
2023/09/07 02:28:35;;;;;;;;;8.00;8.00;;;;;29.10;86.02;100953.41;2103771;28;46809;-59
2023/09/07 02:29:36;;;;;;;;;8.00;8.00;;;;;29.04;86.03;100953.13;2104877;28;46142;-59
2023/09/07 02:30:37;;;;;;;;;9.00;8.00;;;;;29.07;86.04;100944.63;2104909;28;46376;-60
2023/09/07 02:31:37;;;;;;;;;11.00;8.50;;;;;29.07;86.04;100950.94;2104625;28;45300;-59
2023/09/07 02:32:37;;;;;;;;;6.00;6.00;;;;;29.08;86.18;100944.47;2106662;27;46404;-61
2023/09/07 02:33:38;;;;;;;;;6.50;6.50;;;;;29.08;85.72;100947.22;2123486;27;46133;-60
2023/09/07 02:34:38;;;;;;;;;7.50;7.50;;;;;29.07;85.80;100948.22;2122785;27;46868;-59
2023/09/07 02:35:38;;;;;;;;;9.00;8.33;;;;;29.10;85.90;100949.81;2122960;27;46611;-59
2023/09/07 02:36:39;;;;;;;;;7.50;7.50;;;;;29.01;85.77;100948.81;2113730;27;46183;-60
2023/09/07 02:37:39;;;;;;;;;8.25;8.25;;;;;29.11;86.12;100954.28;2114128;27;46192;-59
2023/09/07 02:38:39;;;;;;;;;10.00;9.75;;;;;29.09;86.01;100954.41;2113732;27;46749;-61
2023/09/07 02:39:40;;;;;;;;;9.00;9.00;;;;;29.10;85.97;100953.41;2113827;27;46507;-61
2023/09/07 02:40:44;;;;;;;;;7.67;7.67;;;;;29.04;86.70;100947.66;2122815;27;46641;-59
2023/09/07 02:41:45;;;;;;;;;10.60;8.60;;;;;29.00;86.75;100953.44;2121441;27;46146;-61
2023/09/07 02:42:45;;;;;;;;;8.75;8.00;;;;;29.04;86.84;100947.66;2122838;27;46329;-60
2023/09/07 02:43:46;;;;;;;;;7.75;7.75;;;;;28.99;86.67;100957.16;2123024;27;46207;-60
2023/09/07 02:44:46;;;;;;;;;10.50;9.50;;;;;29.02;87.00;100953.28;2122804;27;46968;-59
2023/09/07 02:45:48;;;;;;;;;9.00;8.75;;;;;28.98;86.98;100955.44;2122912;27;46494;-61
2023/09/07 02:46:48;;;;;;;;;7.20;7.20;;;;;28.97;86.76;100952.88;2122594;27;46225;-58
2023/09/07 02:47:50;;;;;;;;;5.75;5.75;;;;;28.96;87.15;100951.97;2113937;27;46252;-61
2023/09/07 02:48:51;;;;;;;;;9.80;8.20;;;;;28.92;86.85;100958.75;2105146;28;46411;-59
2023/09/07 02:49:51;;;;;;;;;7.00;6.25;;;;;28.93;86.83;100955.00;2113380;27;46176;-59
2023/09/07 02:50:51;;;;;;;;;6.75;6.75;;;;;28.89;87.07;100958.19;2119846;27;46187;-60
2023/09/07 02:51:52;;;;;;;;;8.25;8.00;;;;;28.82;87.55;100959.72;2114038;27;45713;-61
2023/09/07 02:52:52;;;;;;;;;7.75;7.75;;;;;28.75;87.49;100953.13;2121879;27;46029;-60
2023/09/07 02:53:53;;;;;;;;;7.25;7.25;;;;;28.79;88.01;100955.41;2104323;28;46714;-59
2023/09/07 02:54:53;;;;;;;;;8.00;5.80;;;;;28.84;87.47;100952.25;2104560;28;46566;-59
2023/09/07 02:55:53;;;;;;;;;8.00;7.50;;;;;28.84;87.39;100946.78;2122532;27;46666;-61
2023/09/07 02:56:54;;;;;;;;;7.25;6.25;;;;;28.79;87.34;100952.69;2122782;27;46695;-58
2023/09/07 02:57:56;;;;;;;;;8.75;8.75;;;;;28.80;87.54;100946.22;2122642;27;45929;-61
2023/09/07 02:58:57;;;;;;;;;11.00;10.00;;;;;28.80;87.50;100950.81;2121353;27;46578;-61
2023/09/07 02:59:57;;;;;;;;;8.00;8.00;;;;;28.77;87.40;100946.50;2122690;27;46740;-61
2023/09/07 03:00:57;;;;;;;;;5.50;5.50;;;;;28.78;87.52;100948.25;2122767;27;46221;-61
2023/09/07 03:01:58;;;;;;;;;10.75;9.25;;;;;28.75;87.74;100944.94;2123068;27;46182;-61
2023/09/07 03:02:58;;;;;;;;;9.00;9.00;;;;;28.75;87.38;100950.41;2122558;27;46432;-57
2023/09/07 03:03:58;;;;;;;;;8.75;8.75;;;;;28.61;88.09;100943.50;2113473;27;45550;-60
2023/09/07 03:04:58;;;;;;;;;10.00;10.00;;;;;28.57;88.38;100944.78;2113944;27;46285;-58
2023/09/07 03:06:08;;;;;;;;;9.50;9.50;;;;;28.75;87.90;100948.53;2122380;27;46504;-61
2023/09/07 03:07:09;;;;;;;;;8.20;8.20;;;;;28.75;87.53;100948.53;2113731;27;46809;-61
2023/09/07 03:08:09;;;;;;;;;10.75;9.00;;;;;28.71;87.52;100949.81;2104484;28;46249;-61
2023/09/07 03:09:09;;;;;;;;;10.00;10.00;;;;;28.70;87.88;100945.34;2107678;27;46556;-61
2023/09/07 03:10:10;;;;;;;;;8.25;8.00;;;;;28.65;87.73;100947.66;2113019;27;46589;-58
2023/09/07 03:11:11;;;;;;;;;10.00;10.00;;;;;28.65;88.42;100948.53;2113501;27;46504;-58
2023/09/07 03:12:11;;;;;;;;;9.80;8.40;;;;;28.64;88.33;100954.16;2112857;27;46382;-60
2023/09/07 03:13:12;;;;;;;;;10.00;9.00;;;;;28.66;87.96;100949.41;2113102;27;46119;-60
2023/09/07 03:14:12;;;;;;;;;9.75;9.75;;;;;28.66;88.14;100941.19;2113204;27;46097;-58
2023/09/07 03:15:12;;;;;;;;;8.25;7.50;;;;;28.65;88.72;100947.66;2112991;27;46666;-60
2023/09/07 03:16:13;;;;;;;;;9.25;9.25;;;;;28.62;88.32;100950.69;2102366;27;46113;-59
2023/09/07 03:17:13;;;;;;;;;8.75;8.75;;;;;28.60;88.25;100942.66;2104841;28;46695;-59
2023/09/07 03:18:13;;;;;;;;;9.00;9.00;;;;;28.60;88.32;100948.13;2113060;27;46663;-60
2023/09/07 03:19:14;;;;;;;;;8.00;8.00;;;;;28.59;88.24;100938.19;2112959;27;46633;-61
2023/09/07 03:20:14;;;;;;;;;9.00;9.00;;;;;28.57;88.40;100942.91;2113202;27;46386;-58
2023/09/07 03:21:14;;;;;;;;;8.25;8.25;;;;;28.58;88.33;100941.06;2113344;27;46910;-59
2023/09/07 03:22:15;;;;;;;;;8.00;8.00;;;;;28.56;88.55;100941.19;2113575;27;46677;-58
2023/09/07 03:23:16;;;;;;;;;10.00;10.00;;;;;28.57;88.49;100939.31;2105717;27;46647;-61
2023/09/07 03:24:16;;;;;;;;;6.25;6.25;;;;;28.58;88.29;100936.44;2100818;27;46557;-58
2023/09/07 03:25:17;;;;;;;;;11.00;11.00;;;;;28.60;88.25;100941.78;2103501;28;46553;-60
2023/09/07 03:26:17;;;;;;;;;11.00;9.25;;;;;28.56;88.16;100938.47;2112796;27;46626;-60
2023/09/07 03:27:17;;;;;;;;;8.50;6.50;;;;;28.56;88.31;100938.47;2112710;27;46652;-60
2023/09/07 03:28:18;;;;;;;;;10.00;9.25;;;;;28.56;88.26;100935.72;2112100;27;46531;-59
2023/09/07 03:29:18;;;;;;;;;8.50;8.50;;;;;28.54;88.27;100932.28;2112911;27;45673;-59
2023/09/07 03:30:18;;;;;;;;;11.75;10.00;;;;;28.55;88.09;100936.75;2113094;27;45516;-60
2023/09/07 03:31:19;;;;;;;;;10.75;10.75;;;;;28.58;88.30;100938.31;2112577;27;45904;-58
2023/09/07 03:32:19;;;;;;;;;11.00;10.00;;;;;28.56;88.06;100940.34;2112394;27;46274;-60
2023/09/07 03:33:20;;;;;;;;;11.50;11.50;;;;;28.56;88.20;100935.72;2112626;27;46220;-59
2023/09/07 03:34:20;;;;;;;;;9.00;9.00;;;;;28.57;88.40;100940.19;2112909;27;46866;-58
2023/09/07 03:35:21;;;;;;;;;12.50;12.00;;;;;28.57;88.45;100940.19;2107682;27;46536;-60
2023/09/07 03:36:21;;;;;;;;;14.75;13.25;;;;;28.54;88.37;100940.47;2113107;27;46712;-60
2023/09/07 03:37:22;;;;;;;;;11.75;11.00;;;;;28.54;88.44;100943.22;2115942;27;46661;-58
2023/09/07 03:38:22;;;;;;;;;9.75;9.75;;;;;28.56;88.57;100940.34;2096722;28;46141;-60
2023/09/07 03:39:22;;;;;;;;;12.25;12.25;;;;;28.55;88.56;100944.06;2095941;28;46487;-60
2023/09/07 03:40:23;;;;;;;;;13.00;12.00;;;;;28.52;88.72;100942.50;2122475;27;46313;-61
2023/09/07 03:41:30;;;;;;;;;16.00;14.25;;;;;28.58;88.81;100941.91;2121861;27;46969;-60
2023/09/07 03:42:30;;;;;;;;;11.00;11.00;;;;;28.59;88.65;100942.81;2122649;27;45397;-60
2023/09/07 03:43:30;;;;;;;;;13.75;12.75;;;;;28.58;88.77;100946.50;2122752;27;46617;-60
2023/09/07 03:44:31;;;;;;;;;13.00;13.00;;;;;28.62;88.83;100943.38;2113314;27;46127;-60
2023/09/07 03:45:31;;;;;;;;;12.75;12.75;;;;;28.60;88.65;100944.53;2113061;27;46470;-60
2023/09/07 03:46:31;;;;;;;;;14.25;14.25;;;;;28.58;88.46;100943.78;2122543;27;46712;-59
2023/09/07 03:47:32;;;;;;;;;12.50;12.25;;;;;28.57;88.56;100940.19;2122187;27;46605;-60
2023/09/07 03:48:32;;;;;;;;;13.25;13.25;;;;;28.56;88.63;100943.06;2120919;27;46116;-60
2023/09/07 03:49:32;;;;;;;;;10.50;10.50;;;;;28.54;88.39;100945.94;2112495;27;46380;-59
2023/09/07 03:50:32;;;;;;;;;11.50;11.50;;;;;28.55;88.59;100944.06;2112770;27;46307;-61
2023/09/07 03:51:33;;;;;;;;;14.00;14.00;;;;;28.55;88.62;100950.41;2122024;27;46846;-61
2023/09/07 03:52:33;;;;;;;;;10.25;10.25;;;;;28.51;88.25;100946.25;2122322;27;46762;-60
2023/09/07 03:53:33;;;;;;;;;5.25;5.25;;;;;28.53;88.69;100946.09;2122037;27;46314;-60
2023/09/07 03:54:34;;;;;;;;;14.75;13.25;;;;;28.50;88.81;100938.19;2122436;27;46923;-60
2023/09/07 03:55:41;;;;;;;;;12.00;12.00;;;;;28.48;88.63;100942.94;2122805;27;46152;-59
2023/09/07 03:56:42;;;;;;;;;15.60;15.20;;;;;28.48;88.92;100943.81;2122179;27;46334;-59
2023/09/07 03:57:42;;;;;;;;;14.25;14.25;;;;;28.53;88.84;100943.38;2122135;27;46439;-60
2023/09/07 03:58:42;;;;;;;;;12.75;11.25;;;;;28.53;88.49;100946.94;2113537;27;46992;-60
2023/09/07 03:59:43;;;;;;;;;12.25;11.75;;;;;28.55;88.30;100947.66;2121794;27;46691;-61
2023/09/07 04:00:44;;;;;;;;;11.25;10.75;;;;;28.51;88.26;100948.97;2122222;27;46676;-59
2023/09/07 04:01:44;;;;;;;;;10.75;10.75;;;;;28.54;88.25;100947.81;2122220;27;46591;-61
2023/09/07 04:02:44;;;;;;;;;10.25;10.25;;;;;28.53;88.28;100952.41;2121945;27;46933;-60
2023/09/07 04:03:45;;;;;;;;;11.00;11.00;;;;;28.57;87.91;100947.53;2122181;27;46325;-61
2023/09/07 04:04:50;;;;;;;;;12.25;12.00;;;;;28.58;88.32;100943.78;2122184;27;46735;-61
2023/09/07 04:05:51;;;;;;;;;13.80;11.80;;;;;28.56;87.86;100943.94;2121323;27;46958;-61
2023/09/07 04:06:51;;;;;;;;;13.50;11.00;;;;;28.53;88.36;100948.81;2122252;27;46285;-61
2023/09/07 04:07:51;;;;;;;;;13.75;13.75;;;;;28.50;88.08;100944.50;2112264;27;46399;-60
2023/09/07 04:08:52;;;;;;;;;12.50;12.50;;;;;28.48;88.37;100941.06;2112576;27;46066;-59
2023/09/07 04:09:52;;;;;;;;;13.75;13.75;;;;;28.50;88.27;100943.66;2122377;27;46287;-61
2023/09/07 04:10:53;;;;;;;;;12.75;11.00;;;;;28.50;88.25;100940.94;2113027;27;46785;-57
2023/09/07 04:11:53;;;;;;;;;18.75;18.75;;;;;28.52;88.17;100952.56;2116044;27;46652;-59
2023/09/07 04:12:53;;;;;;;;;17.00;17.00;;;;;28.52;88.55;100949.81;2122117;27;46500;-59
2023/09/07 04:13:53;;;;;;;;;13.50;13.50;;;;;28.56;88.05;100941.19;2116479;27;46303;-62
2023/09/07 04:14:54;;;;;;;;;10.25;10.25;;;;;28.57;88.19;100952.97;2115323;27;46852;-62
2023/09/07 04:15:54;;;;;;;;;11.75;11.75;;;;;28.59;87.93;100940.06;2113849;27;45593;-63
2023/09/07 04:16:54;;;;;;;;;11.50;11.50;;;;;28.63;87.74;100947.81;2115535;27;46246;-60
2023/09/07 04:17:55;;;;;;;;;9.00;9.00;;;;;28.51;87.90;100948.97;2113827;27;46519;-62
2023/09/07 04:18:55;;;;;;;;;13.75;11.75;;;;;28.66;88.04;100952.13;2121626;27;46204;-64
2023/09/07 04:19:55;;;;;;;;;12.25;11.75;;;;;28.65;87.74;100947.66;2121968;27;47004;-60
2023/09/07 04:21:07;;;;;;;;;13.00;13.00;;;;;28.66;87.47;100949.41;2122301;27;46451;-58
2023/09/07 04:22:08;;;;;;;;;14.60;13.00;;;;;28.66;87.53;100946.66;2112763;27;46987;-60
2023/09/07 04:23:09;;;;;;;;;11.50;10.50;;;;;28.69;87.47;100943.63;2109578;27;46633;-60
2023/09/07 04:24:09;;;;;;;;;12.75;11.00;;;;;28.61;87.18;100938.06;2120804;27;46589;-61
2023/09/07 04:25:09;;;;;;;;;10.50;10.50;;;;;28.60;87.36;100942.66;2115660;27;46767;-60
2023/09/07 04:26:11;;;;;;;;;10.25;10.25;;;;;28.55;87.62;100942.22;2113827;27;46481;-62
2023/09/07 04:27:12;;;;;;;;;13.00;11.60;;;;;28.54;87.94;100942.34;2122207;27;45312;-60
2023/09/07 04:28:12;;;;;;;;;13.75;13.75;;;;;28.57;88.06;100942.06;2121465;27;46466;-61
2023/09/07 04:29:12;;;;;;;;;12.00;12.00;;;;;28.49;87.94;100936.47;2122205;27;46552;-58
2023/09/07 04:30:13;;;;;;;;;9.75;9.75;;;;;28.48;88.13;100940.22;2122187;27;46488;-60
2023/09/07 04:31:13;;;;;;;;;13.00;11.50;;;;;28.51;87.99;100940.78;2121832;27;46760;-59
2023/09/07 04:32:14;;;;;;;;;9.50;8.00;;;;;28.52;88.08;100931.56;2121026;27;46252;-61
2023/09/07 04:33:14;;;;;;;;;11.50;11.25;;;;;28.53;87.74;100937.91;2121860;27;46490;-60
2023/09/07 04:34:14;;;;;;;;;12.50;10.75;;;;;28.37;88.22;100939.34;2122006;27;46580;-59
2023/09/07 04:35:15;;;;;;;;;13.00;13.00;;;;;28.26;88.42;100944.03;2119450;27;46243;-61
2023/09/07 04:36:15;;;;;;;;;11.00;11.00;;;;;28.38;89.20;100938.34;2118531;27;46202;-60
2023/09/07 04:37:15;;;;;;;;;11.50;11.50;;;;;28.22;89.22;100942.59;2104247;27;46754;-61
2023/09/07 04:38:16;;;;;;;;;12.00;11.00;;;;;28.56;88.46;100941.19;2109191;27;46468;-58
2023/09/07 04:39:16;;;;;;;;;13.00;13.00;;;;;28.66;87.88;100941.19;2121892;27;46879;-61
2023/09/07 04:40:17;;;;;;;;;11.50;11.50;;;;;28.71;87.14;100942.50;2121975;27;46259;-60